CKS248 LLBG-EDDP
Flight info
| Callsign | CKS248 |
|---|---|
| Flight time | N/A |
| Altitude | 34000 |
| Route | SUVAS AFONO TEZAK L324 SAFTA MAROS LUTIG BENEM UN127 LMO EVIVI L863 OKANA NEPOS IRGOR TONDO TEKNO BEGLA BEFRE IVQOQ T951 YAWOY |
| Aircraft | B77L/H-VGDW/C |
Departure
| Time | N/A |
|---|---|
| Airport | Ben Gurion International Airport (LLBG) |
Arrival
| Time | 2026-05-03 21:29 |
|---|---|
| Airport | Leipzig/Halle Airport (EDDP) |
| Time | Latitude | Longitude | Altitude | Speed | Heading |
|---|---|---|---|---|---|
| 2026-05-03 20:15 | 45.40077 | 20.06033 | 34155 ft | 453 kts | 326° |
| 2026-05-03 20:15 | 45.45081 | 20.00655 | 34166 ft | 453 kts | 326° |
| 2026-05-03 20:16 | 45.50130 | 19.95214 | 34158 ft | 453 kts | 326° |
| 2026-05-03 20:16 | 45.55140 | 19.89804 | 34163 ft | 454 kts | 326° |
| 2026-05-03 20:17 | 45.60183 | 19.84346 | 34152 ft | 454 kts | 326° |
| 2026-05-03 20:17 | 45.65193 | 19.78911 | 34160 ft | 454 kts | 326° |
| 2026-05-03 20:18 | 45.70234 | 19.73429 | 34165 ft | 454 kts | 326° |
| 2026-05-03 20:18 | 45.75265 | 19.67945 | 34164 ft | 455 kts | 326° |
| 2026-05-03 20:19 | 45.80302 | 19.62442 | 34165 ft | 455 kts | 326° |
| 2026-05-03 20:19 | 45.85306 | 19.56963 | 34158 ft | 455 kts | 326° |
| 2026-05-03 20:20 | 45.90345 | 19.51432 | 34159 ft | 455 kts | 326° |
| 2026-05-03 20:20 | 45.95352 | 19.45923 | 34159 ft | 455 kts | 326° |
| 2026-05-03 20:21 | 46.00392 | 19.40365 | 34159 ft | 456 kts | 326° |
| 2026-05-03 20:21 | 46.05399 | 19.34823 | 34147 ft | 456 kts | 324° |
| 2026-05-03 20:22 | 46.10329 | 19.29040 | 34163 ft | 456 kts | 323° |
| 2026-05-03 20:22 | 46.15208 | 19.23159 | 34153 ft | 457 kts | 323° |
| 2026-05-03 20:23 | 46.20069 | 19.17310 | 34155 ft | 457 kts | 323° |
| 2026-05-03 20:23 | 46.24965 | 19.11436 | 34154 ft | 457 kts | 323° |
| 2026-05-03 20:24 | 46.29871 | 19.05549 | 34152 ft | 457 kts | 323° |
| 2026-05-03 20:24 | 46.34740 | 18.99696 | 34149 ft | 457 kts | 323° |
| 2026-05-03 20:25 | 46.39639 | 18.93789 | 34147 ft | 457 kts | 323° |
| 2026-05-03 20:25 | 46.44506 | 18.87907 | 34150 ft | 457 kts | 323° |
| 2026-05-03 20:26 | 46.49395 | 18.81984 | 34133 ft | 458 kts | 323° |
| 2026-05-03 20:26 | 46.54287 | 18.76042 | 34140 ft | 458 kts | 323° |
| 2026-05-03 20:27 | 46.59144 | 18.70128 | 34144 ft | 458 kts | 323° |
| 2026-05-03 20:27 | 46.64037 | 18.64157 | 34139 ft | 458 kts | 323° |
| 2026-05-03 20:28 | 46.68919 | 18.58183 | 34143 ft | 458 kts | 323° |
| 2026-05-03 20:28 | 46.73769 | 18.52236 | 34137 ft | 458 kts | 323° |
| 2026-05-03 20:29 | 46.78659 | 18.46224 | 34134 ft | 459 kts | 322° |
| 2026-05-03 20:29 | 46.83553 | 18.40192 | 34137 ft | 460 kts | 322° |
| 2026-05-03 20:30 | 46.88416 | 18.34184 | 34130 ft | 460 kts | 322° |
| 2026-05-03 20:30 | 46.93314 | 18.28118 | 34100 ft | 460 kts | 322° |
| 2026-05-03 20:31 | 46.98200 | 18.22051 | 34124 ft | 460 kts | 322° |
| 2026-05-03 20:31 | 47.03080 | 18.15977 | 34124 ft | 460 kts | 322° |
| 2026-05-03 20:32 | 47.07937 | 18.09916 | 34128 ft | 460 kts | 322° |
| 2026-05-03 20:32 | 47.12817 | 18.03812 | 34123 ft | 461 kts | 322° |
| 2026-05-03 20:33 | 47.17702 | 17.97686 | 34120 ft | 461 kts | 321° |
| 2026-05-03 20:33 | 47.22552 | 17.91589 | 34125 ft | 461 kts | 321° |
| 2026-05-03 20:34 | 47.27422 | 17.85450 | 34128 ft | 461 kts | 321° |
| 2026-05-03 20:34 | 47.32301 | 17.79285 | 34111 ft | 462 kts | 321° |
| 2026-05-03 20:35 | 47.37186 | 17.73098 | 34112 ft | 462 kts | 321° |
| 2026-05-03 20:35 | 47.42035 | 17.66940 | 34106 ft | 462 kts | 321° |
| 2026-05-03 20:36 | 47.46902 | 17.60742 | 34108 ft | 462 kts | 321° |
| 2026-05-03 20:36 | 47.51773 | 17.54524 | 34107 ft | 462 kts | 321° |
| 2026-05-03 20:37 | 47.56634 | 17.48302 | 34104 ft | 462 kts | 320° |
| 2026-05-03 20:37 | 47.61464 | 17.42107 | 34095 ft | 461 kts | 320° |
| 2026-05-03 20:38 | 47.66209 | 17.35689 | 34098 ft | 462 kts | 317° |
| 2026-05-03 20:38 | 47.70029 | 17.30141 | 34100 ft | 462 kts | 317° |
| 2026-05-03 20:39 | 47.74645 | 17.23487 | 34095 ft | 462 kts | 317° |
| 2026-05-03 20:39 | 47.79296 | 17.16849 | 34100 ft | 463 kts | 317° |
| 2026-05-03 20:40 | 47.84286 | 17.10921 | 34079 ft | 461 kts | 327° |
| 2026-05-03 20:40 | 47.89910 | 17.06304 | 34097 ft | 460 kts | 334° |
| 2026-05-03 20:41 | 47.95698 | 17.02160 | 34095 ft | 461 kts | 335° |
| 2026-05-03 20:41 | 48.01454 | 16.98028 | 34099 ft | 461 kts | 334° |
| 2026-05-03 20:42 | 48.07242 | 16.93822 | 34098 ft | 462 kts | 334° |
| 2026-05-03 20:42 | 48.12999 | 16.89607 | 34098 ft | 463 kts | 334° |
| 2026-05-03 20:43 | 48.18793 | 16.85348 | 34084 ft | 463 kts | 334° |
| 2026-05-03 20:43 | 48.24557 | 16.81102 | 34080 ft | 463 kts | 334° |
| 2026-05-03 20:44 | 48.30344 | 16.76829 | 34078 ft | 463 kts | 334° |
| 2026-05-03 20:44 | 48.36134 | 16.72543 | 34076 ft | 463 kts | 334° |
| 2026-05-03 20:45 | 48.41888 | 16.68274 | 34074 ft | 463 kts | 334° |
| 2026-05-03 20:45 | 48.47668 | 16.63974 | 34070 ft | 463 kts | 334° |
| 2026-05-03 20:46 | 48.53419 | 16.59684 | 34058 ft | 463 kts | 334° |
| 2026-05-03 20:46 | 48.59197 | 16.55364 | 34060 ft | 463 kts | 334° |
| 2026-05-03 20:47 | 48.64985 | 16.51025 | 34065 ft | 463 kts | 334° |
| 2026-05-03 20:47 | 48.70729 | 16.46708 | 34058 ft | 463 kts | 334° |
| 2026-05-03 20:48 | 48.76519 | 16.42344 | 34055 ft | 463 kts | 334° |
| 2026-05-03 20:48 | 48.82271 | 16.37999 | 34058 ft | 464 kts | 334° |
| 2026-05-03 20:49 | 48.88061 | 16.33613 | 34062 ft | 464 kts | 333° |
| 2026-05-03 20:49 | 48.93844 | 16.29221 | 34050 ft | 465 kts | 333° |
| 2026-05-03 20:50 | 48.99637 | 16.24811 | 34055 ft | 465 kts | 333° |
| 2026-05-03 20:50 | 49.05396 | 16.20415 | 34065 ft | 465 kts | 333° |
| 2026-05-03 20:51 | 49.11208 | 16.15966 | 34054 ft | 466 kts | 333° |
| 2026-05-03 20:51 | 49.16973 | 16.11542 | 34055 ft | 466 kts | 333° |
| 2026-05-03 20:52 | 49.22776 | 16.07076 | 34054 ft | 466 kts | 333° |
| 2026-05-03 20:52 | 49.28580 | 16.02599 | 34054 ft | 466 kts | 333° |
| 2026-05-03 20:53 | 49.34328 | 15.98153 | 34055 ft | 466 kts | 333° |
| 2026-05-03 20:53 | 49.40121 | 15.93660 | 34050 ft | 466 kts | 333° |
| 2026-05-03 20:54 | 49.45910 | 15.89158 | 34046 ft | 466 kts | 333° |
| 2026-05-03 20:54 | 49.54556 | 15.82413 | 34049 ft | 465 kts | 332° |
| 2026-05-03 20:55 | 49.60334 | 15.77890 | 34038 ft | 463 kts | 332° |
| 2026-05-03 20:55 | 49.66090 | 15.73373 | 34033 ft | 464 kts | 332° |
| 2026-05-03 20:56 | 49.71811 | 15.68871 | 34020 ft | 461 kts | 332° |
| 2026-05-03 20:56 | 49.77498 | 15.64384 | 34022 ft | 458 kts | 332° |
| 2026-05-03 20:57 | 49.83238 | 15.59839 | 34029 ft | 466 kts | 332° |
| 2026-05-03 20:57 | 49.89066 | 15.55215 | 34008 ft | 472 kts | 332° |
| 2026-05-03 20:58 | 49.94913 | 15.50564 | 34012 ft | 475 kts | 332° |
| 2026-05-03 20:58 | 50.00819 | 15.45854 | 33999 ft | 476 kts | 332° |
| 2026-05-03 20:59 | 50.06660 | 15.41182 | 34002 ft | 474 kts | 331° |
| 2026-05-03 20:59 | 50.12516 | 15.36485 | 34002 ft | 471 kts | 331° |
| 2026-05-03 21:00 | 50.17360 | 15.32589 | 34004 ft | 470 kts | 331° |
| 2026-05-03 21:00 | 50.24118 | 15.27140 | 34005 ft | 468 kts | 331° |
| 2026-05-03 21:01 | 50.29912 | 15.22453 | 33997 ft | 468 kts | 331° |
| 2026-05-03 21:01 | 50.35667 | 15.17785 | 33847 ft | 469 kts | 331° |
| 2026-05-03 21:02 | 50.38587 | 15.15412 | 33083 ft | 474 kts | 331° |
| 2026-05-03 21:02 | 50.41513 | 15.13030 | 32320 ft | 472 kts | 331° |
| 2026-05-03 21:02 | 50.44438 | 15.10647 | 31452 ft | 473 kts | 331° |
| 2026-05-03 21:02 | 50.47373 | 15.08252 | 30613 ft | 475 kts | 331° |
| 2026-05-03 21:03 | 50.50293 | 15.05865 | 29994 ft | 471 kts | 330° |
| 2026-05-03 21:03 | 50.53160 | 15.03519 | 29308 ft | 468 kts | 330° |
| 2026-05-03 21:03 | 50.56037 | 15.01163 | 28682 ft | 463 kts | 330° |
| 2026-05-03 21:03 | 50.58889 | 14.98824 | 28088 ft | 459 kts | 330° |
| 2026-05-03 21:04 | 50.61716 | 14.96501 | 27507 ft | 455 kts | 330° |
| 2026-05-03 21:04 | 50.64512 | 14.94199 | 26926 ft | 451 kts | 330° |
| 2026-05-03 21:04 | 50.67289 | 14.91910 | 26345 ft | 448 kts | 330° |
| 2026-05-03 21:04 | 50.70015 | 14.89661 | 25794 ft | 445 kts | 330° |
| 2026-05-03 21:05 | 50.72756 | 14.87395 | 25249 ft | 442 kts | 329° |
| 2026-05-03 21:05 | 50.75480 | 14.85140 | 24699 ft | 440 kts | 329° |
| 2026-05-03 21:05 | 50.78194 | 14.82892 | 24147 ft | 438 kts | 329° |
| 2026-05-03 21:05 | 50.80896 | 14.80650 | 23586 ft | 437 kts | 329° |
| 2026-05-03 21:06 | 50.83555 | 14.78440 | 22959 ft | 436 kts | 329° |
| 2026-05-03 21:06 | 50.86233 | 14.76214 | 22381 ft | 433 kts | 329° |
| 2026-05-03 21:06 | 50.88899 | 14.73994 | 21833 ft | 430 kts | 329° |
| 2026-05-03 21:06 | 50.91459 | 14.71641 | 21290 ft | 418 kts | 319° |
| 2026-05-03 21:07 | 50.93463 | 14.68403 | 20797 ft | 407 kts | 302° |
| 2026-05-03 21:07 | 50.94823 | 14.64526 | 20285 ft | 398 kts | 288° |
| 2026-05-03 21:07 | 50.95611 | 14.60448 | 19823 ft | 388 kts | 282° |
| 2026-05-03 21:07 | 50.96320 | 14.56315 | 19343 ft | 386 kts | 282° |
| 2026-05-03 21:08 | 50.97025 | 14.52208 | 18865 ft | 384 kts | 282° |
| 2026-05-03 21:08 | 50.97731 | 14.48121 | 18382 ft | 382 kts | 282° |
| 2026-05-03 21:08 | 50.98437 | 14.44057 | 17855 ft | 381 kts | 282° |
| 2026-05-03 21:08 | 50.99144 | 14.40013 | 17343 ft | 378 kts | 282° |
| 2026-05-03 21:09 | 50.99840 | 14.36046 | 16839 ft | 375 kts | 282° |
| 2026-05-03 21:09 | 51.00540 | 14.32063 | 16365 ft | 372 kts | 282° |
| 2026-05-03 21:09 | 51.01236 | 14.28110 | 15901 ft | 369 kts | 282° |
| 2026-05-03 21:09 | 51.01924 | 14.24194 | 15426 ft | 366 kts | 282° |
| 2026-05-03 21:10 | 51.02604 | 14.20310 | 14973 ft | 363 kts | 282° |
| 2026-05-03 21:10 | 51.03270 | 14.16504 | 14520 ft | 359 kts | 282° |
| 2026-05-03 21:10 | 51.03936 | 14.12687 | 14063 ft | 357 kts | 282° |
| 2026-05-03 21:10 | 51.04598 | 14.08884 | 13591 ft | 354 kts | 282° |
| 2026-05-03 21:11 | 51.05245 | 14.05163 | 13085 ft | 351 kts | 282° |
| 2026-05-03 21:11 | 51.05893 | 14.01426 | 12615 ft | 348 kts | 282° |
| 2026-05-03 21:11 | 51.06531 | 13.97739 | 12166 ft | 344 kts | 282° |
| 2026-05-03 21:11 | 51.07164 | 13.94072 | 11722 ft | 341 kts | 282° |
| 2026-05-03 21:12 | 51.07790 | 13.90437 | 11289 ft | 341 kts | 282° |
| 2026-05-03 21:12 | 51.08417 | 13.86789 | 10963 ft | 341 kts | 283° |
| 2026-05-03 21:12 | 51.09029 | 13.83224 | 10811 ft | 334 kts | 283° |
| 2026-05-03 21:12 | 51.09634 | 13.79701 | 10665 ft | 324 kts | 283° |
| 2026-05-03 21:13 | 51.10216 | 13.76303 | 10521 ft | 312 kts | 283° |
| 2026-05-03 21:13 | 51.10777 | 13.73023 | 10392 ft | 301 kts | 282° |
| 2026-05-03 21:13 | 51.11316 | 13.69860 | 10264 ft | 290 kts | 282° |
| 2026-05-03 21:13 | 51.11826 | 13.66859 | 10140 ft | 279 kts | 282° |
| 2026-05-03 21:14 | 51.12322 | 13.63938 | 10025 ft | 267 kts | 282° |
| 2026-05-03 21:14 | 51.12796 | 13.61142 | 9893 ft | 256 kts | 282° |
| 2026-05-03 21:14 | 51.13261 | 13.58383 | 9602 ft | 260 kts | 282° |
| 2026-05-03 21:14 | 51.13735 | 13.55568 | 9314 ft | 266 kts | 282° |
| 2026-05-03 21:15 | 51.14217 | 13.52701 | 8996 ft | 268 kts | 282° |
| 2026-05-03 21:15 | 51.14693 | 13.49874 | 8689 ft | 266 kts | 282° |
| 2026-05-03 21:15 | 51.15168 | 13.47049 | 8371 ft | 261 kts | 282° |
| 2026-05-03 21:15 | 51.15635 | 13.44271 | 8057 ft | 256 kts | 282° |
| 2026-05-03 21:16 | 51.16091 | 13.41554 | 7766 ft | 251 kts | 282° |
| 2026-05-03 21:16 | 51.16545 | 13.38835 | 7492 ft | 258 kts | 281° |
| 2026-05-03 21:16 | 51.17008 | 13.36044 | 7212 ft | 267 kts | 281° |
| 2026-05-03 21:16 | 51.17593 | 13.33247 | 6944 ft | 265 kts | 297° |
| 2026-05-03 21:17 | 51.18680 | 13.30911 | 6876 ft | 264 kts | 306° |
| 2026-05-03 21:17 | 51.19477 | 13.29352 | 6824 ft | 272 kts | 306° |
| 2026-05-03 21:17 | 51.21065 | 13.26183 | 6689 ft | 278 kts | 305° |
| 2026-05-03 21:17 | 51.22266 | 13.23772 | 6596 ft | 276 kts | 305° |
| 2026-05-03 21:18 | 51.23452 | 13.21379 | 6488 ft | 274 kts | 305° |
| 2026-05-03 21:18 | 51.24628 | 13.19000 | 6388 ft | 272 kts | 305° |
| 2026-05-03 21:18 | 51.25794 | 13.16634 | 6292 ft | 269 kts | 305° |
| 2026-05-03 21:18 | 51.26948 | 13.14287 | 6210 ft | 267 kts | 305° |
| 2026-05-03 21:19 | 51.28092 | 13.11955 | 6124 ft | 266 kts | 305° |
| 2026-05-03 21:19 | 51.29212 | 13.09667 | 6024 ft | 265 kts | 305° |
| 2026-05-03 21:19 | 51.30348 | 13.07345 | 5958 ft | 265 kts | 305° |
| 2026-05-03 21:19 | 51.31485 | 13.05017 | 5867 ft | 266 kts | 305° |
| 2026-05-03 21:20 | 51.32625 | 13.02680 | 5797 ft | 267 kts | 305° |
| 2026-05-03 21:20 | 51.33769 | 13.00333 | 5706 ft | 268 kts | 305° |
| 2026-05-03 21:20 | 51.34919 | 12.97970 | 5614 ft | 269 kts | 306° |
| 2026-05-03 21:20 | 51.36073 | 12.95602 | 5532 ft | 269 kts | 306° |
| 2026-05-03 21:21 | 51.37224 | 12.93237 | 5464 ft | 268 kts | 306° |
| 2026-05-03 21:21 | 51.38352 | 12.90913 | 5379 ft | 267 kts | 306° |
| 2026-05-03 21:21 | 51.39489 | 12.88574 | 5306 ft | 265 kts | 306° |
| 2026-05-03 21:21 | 51.40623 | 12.86236 | 5227 ft | 264 kts | 306° |
| 2026-05-03 21:22 | 51.41745 | 12.83919 | 5141 ft | 262 kts | 306° |
| 2026-05-03 21:22 | 51.42859 | 12.81616 | 5057 ft | 258 kts | 306° |
| 2026-05-03 21:22 | 51.43683 | 12.79128 | 4991 ft | 252 kts | 279° |
| 2026-05-03 21:22 | 51.43715 | 12.76352 | 4998 ft | 254 kts | 263° |
| 2026-05-03 21:23 | 51.43555 | 12.73501 | 5002 ft | 258 kts | 264° |
| 2026-05-03 21:23 | 51.43419 | 12.70634 | 4994 ft | 257 kts | 264° |
| 2026-05-03 21:23 | 51.43300 | 12.67784 | 4986 ft | 256 kts | 266° |
| 2026-05-03 21:23 | 51.43210 | 12.64963 | 4982 ft | 248 kts | 265° |
| 2026-05-03 21:24 | 51.43102 | 12.62281 | 4856 ft | 236 kts | 265° |
| 2026-05-03 21:24 | 51.42984 | 12.59698 | 4546 ft | 232 kts | 265° |
| 2026-05-03 21:24 | 51.42865 | 12.57137 | 4249 ft | 227 kts | 266° |
| 2026-05-03 21:24 | 51.42787 | 12.55471 | 4049 ft | 225 kts | 266° |
| 2026-05-03 21:25 | 51.42673 | 12.53005 | 3769 ft | 220 kts | 265° |
| 2026-05-03 21:25 | 51.42560 | 12.50586 | 3477 ft | 215 kts | 266° |
| 2026-05-03 21:25 | 51.42450 | 12.48221 | 3190 ft | 210 kts | 266° |
| 2026-05-03 21:25 | 51.42343 | 12.45926 | 2967 ft | 201 kts | 267° |
| 2026-05-03 21:26 | 51.42242 | 12.43742 | 2678 ft | 192 kts | 266° |
| 2026-05-03 21:26 | 51.42145 | 12.41675 | 2413 ft | 180 kts | 267° |
| 2026-05-03 21:26 | 51.42057 | 12.39756 | 2182 ft | 168 kts | 267° |
| 2026-05-03 21:26 | 51.41972 | 12.37935 | 1962 ft | 158 kts | 268° |
| 2026-05-03 21:27 | 51.41894 | 12.36270 | 1780 ft | 140 kts | 269° |
| 2026-05-03 21:27 | 51.41826 | 12.34789 | 1606 ft | 130 kts | 268° |
| 2026-05-03 21:27 | 51.41759 | 12.33319 | 1438 ft | 134 kts | 267° |
| 2026-05-03 21:27 | 51.41688 | 12.31813 | 1253 ft | 137 kts | 267° |
| 2026-05-03 21:28 | 51.41617 | 12.30284 | 1077 ft | 141 kts | 266° |
| 2026-05-03 21:28 | 51.41544 | 12.28718 | 885 ft | 141 kts | 266° |
| 2026-05-03 21:28 | 51.41474 | 12.27136 | 685 ft | 140 kts | 265° |
| 2026-05-03 21:28 | 51.41395 | 12.25582 | 523 ft | 137 kts | 267° |
| 2026-05-03 21:29 | 51.41334 | 12.24160 | 472 ft | 115 kts | 265° |
| 2026-05-03 21:29 | 51.41285 | 12.23123 | 469 ft | 71 kts | 265° |
| 2026-05-03 21:29 | 51.41201 | 12.22607 | 461 ft | 27 kts | 236° |
| 2026-05-03 21:29 | 51.41155 | 12.22529 | 462 ft | 6 kts | 197° |
| 2026-05-03 21:30 | 51.41103 | 12.22594 | 461 ft | 14 kts | 108° |
| 2026-05-03 21:30 | 51.41104 | 12.22771 | 464 ft | 17 kts | 85° |
| 2026-05-03 21:30 | 51.41113 | 12.22958 | 468 ft | 17 kts | 85° |
| 2026-05-03 21:30 | 51.41123 | 12.23146 | 471 ft | 17 kts | 87° |
| 2026-05-03 21:31 | 51.41064 | 12.23286 | 468 ft | 17 kts | 150° |
| 2026-05-03 21:31 | 51.41044 | 12.23463 | 472 ft | 17 kts | 85° |
| 2026-05-03 21:31 | 51.41025 | 12.23640 | 471 ft | 17 kts | 150° |
| 2026-05-03 21:31 | 51.40904 | 12.23667 | 468 ft | 18 kts | 175° |
| 2026-05-03 21:32 | 51.40774 | 12.23684 | 467 ft | 19 kts | 177° |
| 2026-05-03 21:32 | 51.40727 | 12.23604 | 467 ft | 9 kts | 265° |
| 2026-05-03 21:32 | 51.40725 | 12.23565 | 467 ft | 0 kts | 265° |